sensor_id;sensor_type;location;lat;lon;timestamp;P1;durP1;ratioP1;P2;durP2;ratioP2
3771;SDS011;1901;48.172;12.824;2022-07-05T00:01:00;6.77;;;3.50;;
3771;SDS011;1901;48.172;12.824;2022-07-05T00:03:27;5.60;;;5.10;;
3771;SDS011;1901;48.172;12.824;2022-07-05T00:05:56;4.80;;;4.00;;
3771;SDS011;1901;48.172;12.824;2022-07-05T00:08:23;4.33;;;3.93;;
3771;SDS011;1901;48.172;12.824;2022-07-05T00:10:50;5.13;;;3.90;;
3771;SDS011;1901;48.172;12.824;2022-07-05T00:13:17;5.77;;;4.67;;
3771;SDS011;1901;48.172;12.824;2022-07-05T00:15:44;4.80;;;4.27;;
3771;SDS011;1901;48.172;12.824;2022-07-05T00:18:11;5.97;;;4.57;;
3771;SDS011;1901;48.172;12.824;2022-07-05T00:20:38;4.80;;;4.07;;
3771;SDS011;1901;48.172;12.824;2022-07-05T00:23:07;5.07;;;4.57;;
3771;SDS011;1901;48.172;12.824;2022-07-05T00:25:34;4.77;;;4.37;;
3771;SDS011;1901;48.172;12.824;2022-07-05T00:28:01;4.80;;;4.30;;
3771;SDS011;1901;48.172;12.824;2022-07-05T00:30:29;8.13;;;4.20;;
3771;SDS011;1901;48.172;12.824;2022-07-05T00:32:56;4.40;;;4.00;;
3771;SDS011;1901;48.172;12.824;2022-07-05T00:35:23;3.57;;;3.27;;
3771;SDS011;1901;48.172;12.824;2022-07-05T00:37:50;5.83;;;3.40;;
3771;SDS011;1901;48.172;12.824;2022-07-05T00:40:19;4.00;;;2.93;;
3771;SDS011;1901;48.172;12.824;2022-07-05T00:42:46;3.27;;;2.53;;
3771;SDS011;1901;48.172;12.824;2022-07-05T00:45:13;2.73;;;2.50;;
3771;SDS011;1901;48.172;12.824;2022-07-05T00:47:40;17.77;;;3.57;;
3771;SDS011;1901;48.172;12.824;2022-07-05T00:50:08;2.87;;;2.47;;
3771;SDS011;1901;48.172;12.824;2022-07-05T00:52:35;3.57;;;3.20;;
3771;SDS011;1901;48.172;12.824;2022-07-05T00:55:03;2.50;;;2.13;;
3771;SDS011;1901;48.172;12.824;2022-07-05T00:57:31;4.37;;;3.00;;
3771;SDS011;1901;48.172;12.824;2022-07-05T00:59:59;3.33;;;2.40;;
3771;SDS011;1901;48.172;12.824;2022-07-05T01:02:26;3.30;;;3.00;;
3771;SDS011;1901;48.172;12.824;2022-07-05T01:04:53;4.03;;;2.40;;
3771;SDS011;1901;48.172;12.824;2022-07-05T01:07:21;4.50;;;3.10;;
3771;SDS011;1901;48.172;12.824;2022-07-05T01:09:48;2.73;;;2.53;;
3771;SDS011;1901;48.172;12.824;2022-07-05T01:12:16;3.33;;;2.60;;
3771;SDS011;1901;48.172;12.824;2022-07-05T01:14:44;3.57;;;2.73;;
3771;SDS011;1901;48.172;12.824;2022-07-05T01:17:12;4.03;;;3.40;;
3771;SDS011;1901;48.172;12.824;2022-07-05T01:19:39;4.30;;;2.50;;
3771;SDS011;1901;48.172;12.824;2022-07-05T01:22:09;3.60;;;2.90;;
3771;SDS011;1901;48.172;12.824;2022-07-05T01:24:39;5.40;;;2.93;;
3771;SDS011;1901;48.172;12.824;2022-07-05T01:27:07;7.20;;;2.80;;
3771;SDS011;1901;48.172;12.824;2022-07-05T01:29:34;3.30;;;2.90;;
3771;SDS011;1901;48.172;12.824;2022-07-05T01:32:01;5.47;;;3.13;;
3771;SDS011;1901;48.172;12.824;2022-07-05T01:34:28;3.90;;;2.77;;
3771;SDS011;1901;48.172;12.824;2022-07-05T01:36:55;3.30;;;3.00;;
3771;SDS011;1901;48.172;12.824;2022-07-05T01:39:22;2.83;;;2.50;;
3771;SDS011;1901;48.172;12.824;2022-07-05T01:41:51;3.53;;;3.00;;
3771;SDS011;1901;48.172;12.824;2022-07-05T01:44:18;3.20;;;2.90;;
3771;SDS011;1901;48.172;12.824;2022-07-05T01:46:45;3.03;;;2.73;;
3771;SDS011;1901;48.172;12.824;2022-07-05T01:49:13;3.80;;;3.20;;
3771;SDS011;1901;48.172;12.824;2022-07-05T01:51:44;3.37;;;3.03;;
3771;SDS011;1901;48.172;12.824;2022-07-05T01:54:14;6.37;;;3.20;;
3771;SDS011;1901;48.172;12.824;2022-07-05T01:56:42;5.60;;;3.17;;
3771;SDS011;1901;48.172;12.824;2022-07-05T01:59:11;4.17;;;3.07;;
3771;SDS011;1901;48.172;12.824;2022-07-05T02:01:38;3.67;;;2.90;;
3771;SDS011;1901;48.172;12.824;2022-07-05T02:04:06;4.33;;;2.80;;
3771;SDS011;1901;48.172;12.824;2022-07-05T02:06:34;3.30;;;3.00;;
3771;SDS011;1901;48.172;12.824;2022-07-05T02:09:02;2.93;;;2.57;;
3771;SDS011;1901;48.172;12.824;2022-07-05T02:11:30;4.53;;;2.77;;
3771;SDS011;1901;48.172;12.824;2022-07-05T02:13:57;3.80;;;3.13;;
3771;SDS011;1901;48.172;12.824;2022-07-05T02:16:26;3.40;;;2.40;;
3771;SDS011;1901;48.172;12.824;2022-07-05T02:18:54;7.10;;;2.80;;
3771;SDS011;1901;48.172;12.824;2022-07-05T02:21:21;3.20;;;2.90;;
3771;SDS011;1901;48.172;12.824;2022-07-05T02:23:48;3.60;;;3.30;;
3771;SDS011;1901;48.172;12.824;2022-07-05T02:26:15;3.63;;;2.93;;
3771;SDS011;1901;48.172;12.824;2022-07-05T02:28:42;5.97;;;5.37;;
3771;SDS011;1901;48.172;12.824;2022-07-05T02:31:10;5.10;;;3.27;;
3771;SDS011;1901;48.172;12.824;2022-07-05T02:33:38;3.63;;;2.60;;
3771;SDS011;1901;48.172;12.824;2022-07-05T02:36:06;4.87;;;4.17;;
3771;SDS011;1901;48.172;12.824;2022-07-05T02:38:34;3.53;;;3.07;;
3771;SDS011;1901;48.172;12.824;2022-07-05T02:41:03;2.53;;;2.27;;
3771;SDS011;1901;48.172;12.824;2022-07-05T02:43:31;9.37;;;2.27;;
3771;SDS011;1901;48.172;12.824;2022-07-05T02:45:58;2.30;;;2.00;;
3771;SDS011;1901;48.172;12.824;2022-07-05T02:48:25;4.30;;;2.73;;
3771;SDS011;1901;48.172;12.824;2022-07-05T02:50:54;3.93;;;2.40;;
3771;SDS011;1901;48.172;12.824;2022-07-05T02:53:21;3.73;;;2.33;;
3771;SDS011;1901;48.172;12.824;2022-07-05T02:55:48;2.37;;;2.10;;
3771;SDS011;1901;48.172;12.824;2022-07-05T02:58:15;3.33;;;2.33;;
3771;SDS011;1901;48.172;12.824;2022-07-05T03:00:42;2.53;;;2.10;;
3771;SDS011;1901;48.172;12.824;2022-07-05T03:03:09;2.53;;;2.10;;
3771;SDS011;1901;48.172;12.824;2022-07-05T03:05:36;5.93;;;3.37;;
3771;SDS011;1901;48.172;12.824;2022-07-05T03:08:05;4.20;;;3.27;;
3771;SDS011;1901;48.172;12.824;2022-07-05T03:10:32;5.67;;;3.37;;
3771;SDS011;1901;48.172;12.824;2022-07-05T03:13:00;3.20;;;2.40;;
3771;SDS011;1901;48.172;12.824;2022-07-05T03:15:27;2.97;;;2.50;;
3771;SDS011;1901;48.172;12.824;2022-07-05T03:17:54;4.50;;;2.43;;
3771;SDS011;1901;48.172;12.824;2022-07-05T03:20:21;3.10;;;2.00;;
3771;SDS011;1901;48.172;12.824;2022-07-05T03:22:48;2.93;;;2.57;;
3771;SDS011;1901;48.172;12.824;2022-07-05T03:25:17;5.67;;;4.53;;
3771;SDS011;1901;48.172;12.824;2022-07-05T03:27:44;7.00;;;3.23;;
3771;SDS011;1901;48.172;12.824;2022-07-05T03:30:11;3.23;;;2.80;;
3771;SDS011;1901;48.172;12.824;2022-07-05T03:32:38;3.63;;;2.40;;
3771;SDS011;1901;48.172;12.824;2022-07-05T03:35:06;2.90;;;2.13;;
3771;SDS011;1901;48.172;12.824;2022-07-05T03:37:33;3.63;;;2.67;;
3771;SDS011;1901;48.172;12.824;2022-07-05T03:40:00;3.10;;;2.80;;
3771;SDS011;1901;48.172;12.824;2022-07-05T03:42:29;2.57;;;2.37;;
3771;SDS011;1901;48.172;12.824;2022-07-05T03:44:57;6.77;;;2.70;;
3771;SDS011;1901;48.172;12.824;2022-07-05T03:47:24;2.87;;;2.40;;
3771;SDS011;1901;48.172;12.824;2022-07-05T03:49:51;6.70;;;3.17;;
3771;SDS011;1901;48.172;12.824;2022-07-05T03:52:18;6.47;;;3.70;;
3771;SDS011;1901;48.172;12.824;2022-07-05T03:54:45;4.00;;;3.60;;
3771;SDS011;1901;48.172;12.824;2022-07-05T03:57:12;3.60;;;2.60;;
3771;SDS011;1901;48.172;12.824;2022-07-05T03:59:40;9.03;;;2.57;;
3771;SDS011;1901;48.172;12.824;2022-07-05T04:02:08;4.60;;;2.57;;
3771;SDS011;1901;48.172;12.824;2022-07-05T04:04:35;5.80;;;3.17;;
3771;SDS011;1901;48.172;12.824;2022-07-05T04:07:02;4.90;;;3.40;;
3771;SDS011;1901;48.172;12.824;2022-07-05T04:09:29;2.80;;;2.50;;
3771;SDS011;1901;48.172;12.824;2022-07-05T04:11:56;5.07;;;4.00;;
3771;SDS011;1901;48.172;12.824;2022-07-05T04:14:23;4.63;;;3.80;;
3771;SDS011;1901;48.172;12.824;2022-07-05T04:16:52;4.33;;;2.60;;
3771;SDS011;1901;48.172;12.824;2022-07-05T04:19:19;5.00;;;3.10;;
3771;SDS011;1901;48.172;12.824;2022-07-05T04:21:46;4.17;;;3.23;;
3771;SDS011;1901;48.172;12.824;2022-07-05T04:24:13;5.43;;;3.80;;
3771;SDS011;1901;48.172;12.824;2022-07-05T04:26:40;7.30;;;2.83;;
3771;SDS011;1901;48.172;12.824;2022-07-05T04:29:07;4.20;;;2.50;;
3771;SDS011;1901;48.172;12.824;2022-07-05T04:31:34;2.73;;;2.53;;
3771;SDS011;1901;48.172;12.824;2022-07-05T04:34:03;10.40;;;2.67;;
3771;SDS011;1901;48.172;12.824;2022-07-05T04:36:30;2.30;;;2.10;;
3771;SDS011;1901;48.172;12.824;2022-07-05T04:38:57;6.43;;;3.03;;
3771;SDS011;1901;48.172;12.824;2022-07-05T04:41:24;7.10;;;2.63;;
3771;SDS011;1901;48.172;12.824;2022-07-05T04:43:51;4.13;;;3.30;;
3771;SDS011;1901;48.172;12.824;2022-07-05T04:46:18;3.93;;;2.77;;
3771;SDS011;1901;48.172;12.824;2022-07-05T04:48:45;3.63;;;3.10;;
3771;SDS011;1901;48.172;12.824;2022-07-05T04:51:14;3.37;;;3.00;;
3771;SDS011;1901;48.172;12.824;2022-07-05T04:53:41;5.57;;;3.20;;
3771;SDS011;1901;48.172;12.824;2022-07-05T04:56:08;4.33;;;2.60;;
3771;SDS011;1901;48.172;12.824;2022-07-05T04:58:35;7.23;;;2.57;;
3771;SDS011;1901;48.172;12.824;2022-07-05T05:01:03;6.23;;;4.43;;
3771;SDS011;1901;48.172;12.824;2022-07-05T05:03:30;4.40;;;2.87;;
3771;SDS011;1901;48.172;12.824;2022-07-05T05:05:57;5.60;;;2.90;;
3771;SDS011;1901;48.172;12.824;2022-07-05T05:08:26;5.80;;;2.53;;
3771;SDS011;1901;48.172;12.824;2022-07-05T05:10:53;4.40;;;2.90;;
3771;SDS011;1901;48.172;12.824;2022-07-05T05:13:20;6.23;;;3.33;;
3771;SDS011;1901;48.172;12.824;2022-07-05T05:15:47;3.37;;;2.60;;
3771;SDS011;1901;48.172;12.824;2022-07-05T05:18:14;3.13;;;2.70;;
3771;SDS011;1901;48.172;12.824;2022-07-05T05:20:43;4.67;;;2.40;;
3771;SDS011;1901;48.172;12.824;2022-07-05T05:23:10;2.73;;;2.47;;
3771;SDS011;1901;48.172;12.824;2022-07-05T05:25:39;3.93;;;2.87;;
3771;SDS011;1901;48.172;12.824;2022-07-05T05:28:06;3.50;;;2.27;;
3771;SDS011;1901;48.172;12.824;2022-07-05T05:30:33;2.50;;;2.30;;
3771;SDS011;1901;48.172;12.824;2022-07-05T05:33:00;4.80;;;2.63;;
3771;SDS011;1901;48.172;12.824;2022-07-05T05:35:27;5.00;;;2.50;;
3771;SDS011;1901;48.172;12.824;2022-07-05T05:37:54;4.20;;;2.40;;
3771;SDS011;1901;48.172;12.824;2022-07-05T05:40:22;2.90;;;2.40;;
3771;SDS011;1901;48.172;12.824;2022-07-05T05:42:51;3.00;;;2.70;;
3771;SDS011;1901;48.172;12.824;2022-07-05T05:45:18;2.27;;;2.07;;
3771;SDS011;1901;48.172;12.824;2022-07-05T05:47:46;4.57;;;2.27;;
3771;SDS011;1901;48.172;12.824;2022-07-05T05:50:13;2.63;;;2.43;;
3771;SDS011;1901;48.172;12.824;2022-07-05T05:52:44;2.53;;;2.30;;
3771;SDS011;1901;48.172;12.824;2022-07-05T05:55:11;2.93;;;2.37;;
3771;SDS011;1901;48.172;12.824;2022-07-05T05:57:38;4.53;;;2.27;;
3771;SDS011;1901;48.172;12.824;2022-07-05T06:00:08;4.00;;;2.60;;
3771;SDS011;1901;48.172;12.824;2022-07-05T06:02:35;2.87;;;2.37;;
3771;SDS011;1901;48.172;12.824;2022-07-05T06:05:03;4.13;;;2.10;;
3771;SDS011;1901;48.172;12.824;2022-07-05T06:07:30;2.57;;;1.80;;
3771;SDS011;1901;48.172;12.824;2022-07-05T06:09:57;2.17;;;1.97;;
3771;SDS011;1901;48.172;12.824;2022-07-05T06:12:24;2.60;;;1.60;;
3771;SDS011;1901;48.172;12.824;2022-07-05T06:14:51;2.67;;;2.03;;
3771;SDS011;1901;48.172;12.824;2022-07-05T06:17:20;4.90;;;2.63;;
3771;SDS011;1901;48.172;12.824;2022-07-05T06:19:47;1.80;;;1.60;;
3771;SDS011;1901;48.172;12.824;2022-07-05T06:22:14;2.30;;;1.73;;
3771;SDS011;1901;48.172;12.824;2022-07-05T06:24:41;3.87;;;1.80;;
3771;SDS011;1901;48.172;12.824;2022-07-05T06:27:08;2.27;;;1.80;;
3771;SDS011;1901;48.172;12.824;2022-07-05T06:29:35;3.40;;;2.00;;
3771;SDS011;1901;48.172;12.824;2022-07-05T06:32:02;4.83;;;1.60;;
3771;SDS011;1901;48.172;12.824;2022-07-05T06:34:32;2.10;;;1.80;;
3771;SDS011;1901;48.172;12.824;2022-07-05T06:36:59;3.10;;;1.83;;
3771;SDS011;1901;48.172;12.824;2022-07-05T06:39:26;2.60;;;1.60;;
3771;SDS011;1901;48.172;12.824;2022-07-05T06:41:53;2.90;;;1.57;;
3771;SDS011;1901;48.172;12.824;2022-07-05T06:44:20;5.17;;;1.70;;
3771;SDS011;1901;48.172;12.824;2022-07-05T06:46:47;3.37;;;1.90;;
3771;SDS011;1901;48.172;12.824;2022-07-05T06:49:14;1.90;;;1.40;;
3771;SDS011;1901;48.172;12.824;2022-07-05T06:51:43;2.00;;;1.50;;
3771;SDS011;1901;48.172;12.824;2022-07-05T06:54:10;2.43;;;1.83;;
3771;SDS011;1901;48.172;12.824;2022-07-05T06:56:37;2.17;;;1.50;;
3771;SDS011;1901;48.172;12.824;2022-07-05T06:59:04;1.83;;;1.53;;
3771;SDS011;1901;48.172;12.824;2022-07-05T07:01:31;3.20;;;1.60;;
3771;SDS011;1901;48.172;12.824;2022-07-05T07:03:58;2.00;;;1.67;;
3771;SDS011;1901;48.172;12.824;2022-07-05T07:06:26;2.80;;;1.60;;
3771;SDS011;1901;48.172;12.824;2022-07-05T07:08:54;1.90;;;1.70;;
3771;SDS011;1901;48.172;12.824;2022-07-05T07:11:39;5.67;;;1.47;;
3771;SDS011;1901;48.172;12.824;2022-07-05T07:14:06;4.93;;;2.00;;
3771;SDS011;1901;48.172;12.824;2022-07-05T07:16:33;4.60;;;2.40;;
3771;SDS011;1901;48.172;12.824;2022-07-05T07:19:00;2.73;;;2.30;;
3771;SDS011;1901;48.172;12.824;2022-07-05T07:21:27;5.77;;;2.07;;
3771;SDS011;1901;48.172;12.824;2022-07-05T07:23:56;4.67;;;1.60;;
3771;SDS011;1901;48.172;12.824;2022-07-05T07:26:23;2.43;;;2.07;;
3771;SDS011;1901;48.172;12.824;2022-07-05T07:28:50;5.80;;;3.50;;
3771;SDS011;1901;48.172;12.824;2022-07-05T07:31:17;2.93;;;2.07;;
3771;SDS011;1901;48.172;12.824;2022-07-05T07:33:44;3.63;;;2.40;;
3771;SDS011;1901;48.172;12.824;2022-07-05T07:36:11;4.43;;;2.00;;
3771;SDS011;1901;48.172;12.824;2022-07-05T07:38:39;2.50;;;2.30;;
3771;SDS011;1901;48.172;12.824;2022-07-05T07:41:07;2.13;;;1.93;;
3771;SDS011;1901;48.172;12.824;2022-07-05T07:43:34;3.00;;;1.97;;
3771;SDS011;1901;48.172;12.824;2022-07-05T07:46:01;2.67;;;1.80;;
3771;SDS011;1901;48.172;12.824;2022-07-05T07:48:28;2.70;;;1.90;;
3771;SDS011;1901;48.172;12.824;2022-07-05T07:50:56;5.63;;;1.97;;
3771;SDS011;1901;48.172;12.824;2022-07-05T07:53:23;4.13;;;2.03;;
3771;SDS011;1901;48.172;12.824;2022-07-05T07:55:51;4.80;;;2.43;;
3771;SDS011;1901;48.172;12.824;2022-07-05T07:58:19;2.90;;;2.07;;
3771;SDS011;1901;48.172;12.824;2022-07-05T08:00:46;3.90;;;2.60;;
3771;SDS011;1901;48.172;12.824;2022-07-05T08:03:13;3.60;;;2.10;;
3771;SDS011;1901;48.172;12.824;2022-07-05T08:05:40;4.10;;;2.17;;
3771;SDS011;1901;48.172;12.824;2022-07-05T08:08:07;2.37;;;1.90;;
3771;SDS011;1901;48.172;12.824;2022-07-05T08:10:34;2.33;;;1.70;;
3771;SDS011;1901;48.172;12.824;2022-07-05T08:13:02;2.53;;;1.80;;
3771;SDS011;1901;48.172;12.824;2022-07-05T08:15:30;3.33;;;2.33;;
3771;SDS011;1901;48.172;12.824;2022-07-05T08:17:57;2.73;;;2.50;;
3771;SDS011;1901;48.172;12.824;2022-07-05T08:20:42;4.57;;;1.93;;
3771;SDS011;1901;48.172;12.824;2022-07-05T08:23:27;2.27;;;2.07;;
3771;SDS011;1901;48.172;12.824;2022-07-05T08:25:54;2.63;;;2.00;;
3771;SDS011;1901;48.172;12.824;2022-07-05T08:28:21;2.87;;;2.57;;
3771;SDS011;1901;48.172;12.824;2022-07-05T08:30:50;3.20;;;2.10;;
3771;SDS011;1901;48.172;12.824;2022-07-05T08:33:17;2.03;;;1.83;;
3771;SDS011;1901;48.172;12.824;2022-07-05T08:35:44;4.03;;;1.70;;
3771;SDS011;1901;48.172;12.824;2022-07-05T08:38:11;2.13;;;1.93;;
3771;SDS011;1901;48.172;12.824;2022-07-05T08:40:39;2.47;;;1.80;;
3771;SDS011;1901;48.172;12.824;2022-07-05T08:43:10;5.67;;;2.17;;
3771;SDS011;1901;48.172;12.824;2022-07-05T08:45:37;6.20;;;1.97;;
3771;SDS011;1901;48.172;12.824;2022-07-05T08:48:06;2.30;;;1.70;;
3771;SDS011;1901;48.172;12.824;2022-07-05T08:50:35;2.90;;;2.60;;
3771;SDS011;1901;48.172;12.824;2022-07-05T08:53:03;6.00;;;2.50;;
3771;SDS011;1901;48.172;12.824;2022-07-05T08:55:31;2.47;;;2.27;;
3771;SDS011;1901;48.172;12.824;2022-07-05T08:57:59;2.33;;;2.13;;
3771;SDS011;1901;48.172;12.824;2022-07-05T09:00:27;7.10;;;2.27;;
3771;SDS011;1901;48.172;12.824;2022-07-05T09:02:54;3.07;;;2.20;;
3771;SDS011;1901;48.172;12.824;2022-07-05T09:05:23;2.23;;;2.03;;
3771;SDS011;1901;48.172;12.824;2022-07-05T09:07:54;2.10;;;1.90;;
3771;SDS011;1901;48.172;12.824;2022-07-05T09:10:22;3.10;;;1.80;;
3771;SDS011;1901;48.172;12.824;2022-07-05T09:12:50;2.47;;;1.90;;
3771;SDS011;1901;48.172;12.824;2022-07-05T09:15:17;4.60;;;2.63;;
3771;SDS011;1901;48.172;12.824;2022-07-05T09:17:44;2.23;;;2.00;;
3771;SDS011;1901;48.172;12.824;2022-07-05T09:20:12;3.20;;;1.90;;
3771;SDS011;1901;48.172;12.824;2022-07-05T09:22:48;3.27;;;2.33;;
3771;SDS011;1901;48.172;12.824;2022-07-05T09:25:18;4.90;;;2.33;;
3771;SDS011;1901;48.172;12.824;2022-07-05T09:27:53;3.43;;;2.37;;
3771;SDS011;1901;48.172;12.824;2022-07-05T09:30:25;3.53;;;3.20;;
3771;SDS011;1901;48.172;12.824;2022-07-05T09:35:42;3.77;;;2.17;;
3771;SDS011;1901;48.172;12.824;2022-07-05T09:38:18;2.97;;;2.30;;
3771;SDS011;1901;48.172;12.824;2022-07-05T09:40:46;2.70;;;2.20;;
3771;SDS011;1901;48.172;12.824;2022-07-05T09:43:14;4.07;;;2.27;;
3771;SDS011;1901;48.172;12.824;2022-07-05T09:45:55;2.60;;;2.00;;
3771;SDS011;1901;48.172;12.824;2022-07-05T09:48:23;2.63;;;2.10;;
3771;SDS011;1901;48.172;12.824;2022-07-05T09:50:50;3.67;;;2.50;;
3771;SDS011;1901;48.172;12.824;2022-07-05T09:53:19;5.70;;;2.30;;
3771;SDS011;1901;48.172;12.824;2022-07-05T09:55:59;2.30;;;2.10;;
3771;SDS011;1901;48.172;12.824;2022-07-05T09:58:27;4.90;;;2.53;;
3771;SDS011;1901;48.172;12.824;2022-07-05T10:00:54;3.07;;;2.30;;
3771;SDS011;1901;48.172;12.824;2022-07-05T10:03:21;3.60;;;2.17;;
3771;SDS011;1901;48.172;12.824;2022-07-05T10:05:48;2.10;;;1.90;;
3771;SDS011;1901;48.172;12.824;2022-07-05T10:08:15;3.50;;;3.00;;
3771;SDS011;1901;48.172;12.824;2022-07-05T10:10:45;5.10;;;2.83;;
3771;SDS011;1901;48.172;12.824;2022-07-05T10:13:12;2.53;;;1.80;;
3771;SDS011;1901;48.172;12.824;2022-07-05T10:15:41;3.60;;;2.10;;
3771;SDS011;1901;48.172;12.824;2022-07-05T10:18:11;2.77;;;1.93;;
3771;SDS011;1901;48.172;12.824;2022-07-05T10:20:39;2.37;;;2.17;;
3771;SDS011;1901;48.172;12.824;2022-07-05T10:23:07;3.40;;;1.80;;
3771;SDS011;1901;48.172;12.824;2022-07-05T10:25:35;3.23;;;2.50;;
3771;SDS011;1901;48.172;12.824;2022-07-05T10:28:04;5.43;;;2.00;;
3771;SDS011;1901;48.172;12.824;2022-07-05T10:30:31;2.90;;;2.60;;
3771;SDS011;1901;48.172;12.824;2022-07-05T10:32:59;3.10;;;2.50;;
3771;SDS011;1901;48.172;12.824;2022-07-05T10:35:28;5.90;;;5.20;;
3771;SDS011;1901;48.172;12.824;2022-07-05T10:37:55;3.50;;;2.87;;
3771;SDS011;1901;48.172;12.824;2022-07-05T10:40:23;2.80;;;2.60;;
3771;SDS011;1901;48.172;12.824;2022-07-05T10:42:52;2.87;;;2.67;;
3771;SDS011;1901;48.172;12.824;2022-07-05T10:45:23;5.03;;;2.70;;
3771;SDS011;1901;48.172;12.824;2022-07-05T10:50:42;3.90;;;3.13;;
3771;SDS011;1901;48.172;12.824;2022-07-05T10:53:09;3.67;;;2.70;;
3771;SDS011;1901;48.172;12.824;2022-07-05T10:55:46;4.20;;;2.10;;
3771;SDS011;1901;48.172;12.824;2022-07-05T11:03:46;2.90;;;2.50;;
3771;SDS011;1901;48.172;12.824;2022-07-05T11:06:18;3.47;;;2.63;;
3771;SDS011;1901;48.172;12.824;2022-07-05T11:11:33;3.37;;;2.83;;
3771;SDS011;1901;48.172;12.824;2022-07-05T11:14:01;4.00;;;1.87;;
3771;SDS011;1901;48.172;12.824;2022-07-05T11:16:29;2.70;;;1.90;;
3771;SDS011;1901;48.172;12.824;2022-07-05T11:19:05;2.37;;;1.80;;
3771;SDS011;1901;48.172;12.824;2022-07-05T11:21:33;7.40;;;2.60;;
3771;SDS011;1901;48.172;12.824;2022-07-05T11:26:42;2.47;;;2.27;;
3771;SDS011;1901;48.172;12.824;2022-07-05T11:29:22;2.00;;;1.90;;
3771;SDS011;1901;48.172;12.824;2022-07-05T11:32:07;2.80;;;2.40;;
3771;SDS011;1901;48.172;12.824;2022-07-05T11:34:35;2.13;;;1.93;;
3771;SDS011;1901;48.172;12.824;2022-07-05T11:37:19;2.13;;;1.93;;
3771;SDS011;1901;48.172;12.824;2022-07-05T11:42:30;2.37;;;1.90;;
3771;SDS011;1901;48.172;12.824;2022-07-05T11:44:58;2.20;;;1.90;;
3771;SDS011;1901;48.172;12.824;2022-07-05T11:47:26;4.30;;;2.17;;
3771;SDS011;1901;48.172;12.824;2022-07-05T11:49:55;2.47;;;1.70;;
3771;SDS011;1901;48.172;12.824;2022-07-05T11:52:24;2.37;;;2.17;;
3771;SDS011;1901;48.172;12.824;2022-07-05T11:54:52;3.30;;;1.57;;
3771;SDS011;1901;48.172;12.824;2022-07-05T11:57:19;2.00;;;1.60;;
3771;SDS011;1901;48.172;12.824;2022-07-05T11:59:46;3.60;;;2.30;;
3771;SDS011;1901;48.172;12.824;2022-07-05T12:02:13;1.70;;;1.60;;
3771;SDS011;1901;48.172;12.824;2022-07-05T12:04:45;2.40;;;2.10;;
3771;SDS011;1901;48.172;12.824;2022-07-05T12:07:24;5.63;;;2.53;;
3771;SDS011;1901;48.172;12.824;2022-07-05T12:09:51;2.40;;;2.20;;
3771;SDS011;1901;48.172;12.824;2022-07-05T12:12:36;2.20;;;1.90;;
3771;SDS011;1901;48.172;12.824;2022-07-05T12:15:10;3.90;;;1.93;;
3771;SDS011;1901;48.172;12.824;2022-07-05T12:17:38;2.30;;;2.10;;
3771;SDS011;1901;48.172;12.824;2022-07-05T12:20:06;2.40;;;1.70;;
3771;SDS011;1901;48.172;12.824;2022-07-05T12:22:35;2.00;;;1.87;;
3771;SDS011;1901;48.172;12.824;2022-07-05T12:25:03;2.10;;;1.70;;
3771;SDS011;1901;48.172;12.824;2022-07-05T12:27:32;5.70;;;2.10;;
3771;SDS011;1901;48.172;12.824;2022-07-05T12:29:59;2.33;;;2.13;;
3771;SDS011;1901;48.172;12.824;2022-07-05T12:32:28;3.50;;;2.07;;
3771;SDS011;1901;48.172;12.824;2022-07-05T12:34:55;2.87;;;2.10;;
3771;SDS011;1901;48.172;12.824;2022-07-05T12:37:23;2.47;;;2.27;;
3771;SDS011;1901;48.172;12.824;2022-07-05T12:40:02;3.93;;;2.67;;
3771;SDS011;1901;48.172;12.824;2022-07-05T12:42:29;2.50;;;1.90;;
3771;SDS011;1901;48.172;12.824;2022-07-05T12:45:10;3.80;;;2.33;;
3771;SDS011;1901;48.172;12.824;2022-07-05T12:47:48;4.03;;;2.47;;
3771;SDS011;1901;48.172;12.824;2022-07-05T12:50:15;2.30;;;2.10;;
3771;SDS011;1901;48.172;12.824;2022-07-05T12:52:58;2.30;;;2.10;;
3771;SDS011;1901;48.172;12.824;2022-07-05T12:55:34;3.97;;;2.27;;
3771;SDS011;1901;48.172;12.824;2022-07-05T12:58:19;5.50;;;2.57;;
3771;SDS011;1901;48.172;12.824;2022-07-05T13:00:46;2.37;;;2.17;;
3771;SDS011;1901;48.172;12.824;2022-07-05T13:03:14;2.37;;;2.10;;
3771;SDS011;1901;48.172;12.824;2022-07-05T13:05:41;2.53;;;1.90;;
3771;SDS011;1901;48.172;12.824;2022-07-05T13:08:08;2.20;;;2.00;;
3771;SDS011;1901;48.172;12.824;2022-07-05T13:10:37;5.43;;;2.00;;
3771;SDS011;1901;48.172;12.824;2022-07-05T13:13:12;5.77;;;2.43;;
3771;SDS011;1901;48.172;12.824;2022-07-05T13:15:41;2.37;;;2.17;;
3771;SDS011;1901;48.172;12.824;2022-07-05T13:18:08;11.63;;;2.20;;
3771;SDS011;1901;48.172;12.824;2022-07-05T13:20:35;2.60;;;1.90;;
3771;SDS011;1901;48.172;12.824;2022-07-05T13:23:02;5.50;;;2.07;;
3771;SDS011;1901;48.172;12.824;2022-07-05T13:25:30;2.77;;;2.27;;
3771;SDS011;1901;48.172;12.824;2022-07-05T13:27:58;2.10;;;1.90;;
3771;SDS011;1901;48.172;12.824;2022-07-05T13:30:25;1.90;;;1.70;;
3771;SDS011;1901;48.172;12.824;2022-07-05T13:32:52;2.00;;;1.83;;
3771;SDS011;1901;48.172;12.824;2022-07-05T13:35:19;2.57;;;1.83;;
3771;SDS011;1901;48.172;12.824;2022-07-05T13:37:47;3.00;;;2.17;;
3771;SDS011;1901;48.172;12.824;2022-07-05T13:40:14;2.10;;;1.90;;
3771;SDS011;1901;48.172;12.824;2022-07-05T13:42:41;3.53;;;2.87;;
3771;SDS011;1901;48.172;12.824;2022-07-05T13:45:10;2.07;;;1.87;;
3771;SDS011;1901;48.172;12.824;2022-07-05T13:47:38;6.80;;;2.03;;
3771;SDS011;1901;48.172;12.824;2022-07-05T13:50:06;2.00;;;1.80;;
3771;SDS011;1901;48.172;12.824;2022-07-05T13:52:50;2.13;;;1.83;;
3771;SDS011;1901;48.172;12.824;2022-07-05T13:55:17;2.93;;;1.83;;
3771;SDS011;1901;48.172;12.824;2022-07-05T13:57:44;2.30;;;2.10;;
3771;SDS011;1901;48.172;12.824;2022-07-05T14:00:13;2.00;;;1.70;;
3771;SDS011;1901;48.172;12.824;2022-07-05T14:02:41;3.57;;;3.27;;
3771;SDS011;1901;48.172;12.824;2022-07-05T14:05:08;1.87;;;1.67;;
3771;SDS011;1901;48.172;12.824;2022-07-05T14:07:35;2.77;;;2.20;;
3771;SDS011;1901;48.172;12.824;2022-07-05T14:10:03;2.77;;;2.40;;
3771;SDS011;1901;48.172;12.824;2022-07-05T14:12:30;2.40;;;2.07;;
3771;SDS011;1901;48.172;12.824;2022-07-05T14:14:57;6.43;;;2.20;;
3771;SDS011;1901;48.172;12.824;2022-07-05T14:17:26;5.10;;;2.03;;
3771;SDS011;1901;48.172;12.824;2022-07-05T14:19:53;4.47;;;1.90;;
3771;SDS011;1901;48.172;12.824;2022-07-05T14:22:20;2.47;;;2.23;;
3771;SDS011;1901;48.172;12.824;2022-07-05T14:24:47;2.13;;;1.90;;
3771;SDS011;1901;48.172;12.824;2022-07-05T14:27:15;5.20;;;2.00;;
3771;SDS011;1901;48.172;12.824;2022-07-05T14:29:42;4.97;;;2.43;;
3771;SDS011;1901;48.172;12.824;2022-07-05T14:32:09;2.67;;;1.90;;
3771;SDS011;1901;48.172;12.824;2022-07-05T14:34:37;2.67;;;2.47;;
3771;SDS011;1901;48.172;12.824;2022-07-05T14:37:04;2.40;;;2.20;;
3771;SDS011;1901;48.172;12.824;2022-07-05T14:39:32;3.43;;;2.23;;
3771;SDS011;1901;48.172;12.824;2022-07-05T14:41:59;2.47;;;1.80;;
3771;SDS011;1901;48.172;12.824;2022-07-05T14:44:27;2.33;;;1.80;;
3771;SDS011;1901;48.172;12.824;2022-07-05T14:46:54;2.70;;;2.10;;
3771;SDS011;1901;48.172;12.824;2022-07-05T14:49:21;2.37;;;2.00;;
3771;SDS011;1901;48.172;12.824;2022-07-05T14:51:50;2.37;;;1.60;;
3771;SDS011;1901;48.172;12.824;2022-07-05T14:54:17;2.50;;;2.03;;
3771;SDS011;1901;48.172;12.824;2022-07-05T14:56:44;3.47;;;1.80;;
3771;SDS011;1901;48.172;12.824;2022-07-05T14:59:11;2.90;;;2.17;;
3771;SDS011;1901;48.172;12.824;2022-07-05T15:01:38;2.97;;;1.97;;
3771;SDS011;1901;48.172;12.824;2022-07-05T15:04:05;2.30;;;2.10;;
3771;SDS011;1901;48.172;12.824;2022-07-05T15:06:32;3.20;;;1.93;;
3771;SDS011;1901;48.172;12.824;2022-07-05T15:09:01;2.97;;;1.77;;
3771;SDS011;1901;48.172;12.824;2022-07-05T15:11:28;4.33;;;2.00;;
3771;SDS011;1901;48.172;12.824;2022-07-05T15:13:55;6.70;;;1.90;;
3771;SDS011;1901;48.172;12.824;2022-07-05T15:16:22;3.63;;;2.27;;
3771;SDS011;1901;48.172;12.824;2022-07-05T15:18:49;2.93;;;1.90;;
3771;SDS011;1901;48.172;12.824;2022-07-05T15:21:18;3.10;;;2.10;;
3771;SDS011;1901;48.172;12.824;2022-07-05T15:23:45;2.07;;;1.77;;
3771;SDS011;1901;48.172;12.824;2022-07-05T15:26:13;3.13;;;1.60;;